sensor_id;sensor_type;location;lat;lon;timestamp;P1;durP1;ratioP1;P2;durP2;ratioP2
21657;SDS011;10990;48.174;9.782;2024-03-06T00:02:08;5.37;;;4.20;;
21657;SDS011;10990;48.174;9.782;2024-03-06T00:04:37;6.10;;;4.30;;
21657;SDS011;10990;48.174;9.782;2024-03-06T00:07:02;5.80;;;4.47;;
21657;SDS011;10990;48.174;9.782;2024-03-06T00:09:28;5.90;;;4.20;;
21657;SDS011;10990;48.174;9.782;2024-03-06T00:11:54;6.47;;;4.47;;
21657;SDS011;10990;48.174;9.782;2024-03-06T00:14:21;6.50;;;4.40;;
21657;SDS011;10990;48.174;9.782;2024-03-06T00:16:47;8.43;;;4.67;;
21657;SDS011;10990;48.174;9.782;2024-03-06T00:19:13;7.87;;;5.00;;
21657;SDS011;10990;48.174;9.782;2024-03-06T00:21:42;5.77;;;4.57;;
21657;SDS011;10990;48.174;9.782;2024-03-06T00:24:08;6.77;;;4.93;;
21657;SDS011;10990;48.174;9.782;2024-03-06T00:26:33;6.10;;;4.70;;
21657;SDS011;10990;48.174;9.782;2024-03-06T00:28:59;6.73;;;4.57;;
21657;SDS011;10990;48.174;9.782;2024-03-06T00:31:25;6.40;;;4.20;;
21657;SDS011;10990;48.174;9.782;2024-03-06T00:33:51;5.73;;;4.20;;
21657;SDS011;10990;48.174;9.782;2024-03-06T00:36:17;6.10;;;4.33;;
21657;SDS011;10990;48.174;9.782;2024-03-06T00:38:46;7.63;;;4.23;;
21657;SDS011;10990;48.174;9.782;2024-03-06T00:41:12;7.20;;;4.13;;
21657;SDS011;10990;48.174;9.782;2024-03-06T00:43:37;5.93;;;4.27;;
21657;SDS011;10990;48.174;9.782;2024-03-06T00:46:03;6.30;;;4.70;;
21657;SDS011;10990;48.174;9.782;2024-03-06T00:48:29;6.23;;;4.30;;
21657;SDS011;10990;48.174;9.782;2024-03-06T00:50:55;6.70;;;4.30;;
21657;SDS011;10990;48.174;9.782;2024-03-06T00:53:24;5.83;;;4.37;;
21657;SDS011;10990;48.174;9.782;2024-03-06T00:55:52;6.07;;;4.43;;
21657;SDS011;10990;48.174;9.782;2024-03-06T00:58:18;6.47;;;4.37;;
21657;SDS011;10990;48.174;9.782;2024-03-06T01:00:44;5.57;;;4.27;;
21657;SDS011;10990;48.174;9.782;2024-03-06T01:03:10;7.40;;;4.53;;
21657;SDS011;10990;48.174;9.782;2024-03-06T01:05:36;5.90;;;4.40;;
21657;SDS011;10990;48.174;9.782;2024-03-06T01:08:02;8.20;;;4.40;;
21657;SDS011;10990;48.174;9.782;2024-03-06T01:10:28;5.37;;;3.87;;
21657;SDS011;10990;48.174;9.782;2024-03-06T01:12:57;6.20;;;4.23;;
21657;SDS011;10990;48.174;9.782;2024-03-06T01:15:22;5.93;;;4.13;;
21657;SDS011;10990;48.174;9.782;2024-03-06T01:17:48;6.83;;;4.60;;
21657;SDS011;10990;48.174;9.782;2024-03-06T01:20:14;7.90;;;5.07;;
21657;SDS011;10990;48.174;9.782;2024-03-06T01:22:40;7.80;;;4.57;;
21657;SDS011;10990;48.174;9.782;2024-03-06T01:25:06;7.10;;;4.93;;
21657;SDS011;10990;48.174;9.782;2024-03-06T01:27:32;6.40;;;4.63;;
21657;SDS011;10990;48.174;9.782;2024-03-06T01:30:01;6.97;;;4.50;;
21657;SDS011;10990;48.174;9.782;2024-03-06T01:32:27;6.43;;;4.47;;
21657;SDS011;10990;48.174;9.782;2024-03-06T01:34:53;6.83;;;4.63;;
21657;SDS011;10990;48.174;9.782;2024-03-06T01:37:19;5.43;;;4.33;;
21657;SDS011;10990;48.174;9.782;2024-03-06T01:39:45;6.50;;;4.80;;
21657;SDS011;10990;48.174;9.782;2024-03-06T01:42:11;6.50;;;4.70;;
21657;SDS011;10990;48.174;9.782;2024-03-06T01:44:37;5.70;;;4.30;;
21657;SDS011;10990;48.174;9.782;2024-03-06T01:47:05;5.67;;;4.37;;
21657;SDS011;10990;48.174;9.782;2024-03-06T01:49:31;6.87;;;4.63;;
21657;SDS011;10990;48.174;9.782;2024-03-06T01:51:57;7.47;;;4.50;;
21657;SDS011;10990;48.174;9.782;2024-03-06T01:54:24;8.40;;;4.70;;
21657;SDS011;10990;48.174;9.782;2024-03-06T01:56:51;6.27;;;4.40;;
21657;SDS011;10990;48.174;9.782;2024-03-06T01:59:18;5.97;;;4.63;;
21657;SDS011;10990;48.174;9.782;2024-03-06T02:01:46;6.57;;;4.93;;
21657;SDS011;10990;48.174;9.782;2024-03-06T02:04:15;7.43;;;5.17;;
21657;SDS011;10990;48.174;9.782;2024-03-06T02:06:41;6.30;;;4.90;;
21657;SDS011;10990;48.174;9.782;2024-03-06T02:09:07;8.90;;;5.40;;
21657;SDS011;10990;48.174;9.782;2024-03-06T02:11:33;8.90;;;5.37;;
21657;SDS011;10990;48.174;9.782;2024-03-06T02:13:59;8.17;;;5.73;;
21657;SDS011;10990;48.174;9.782;2024-03-06T02:16:25;8.40;;;5.50;;
21657;SDS011;10990;48.174;9.782;2024-03-06T02:18:51;8.40;;;6.00;;
21657;SDS011;10990;48.174;9.782;2024-03-06T02:21:20;9.57;;;5.97;;
21657;SDS011;10990;48.174;9.782;2024-03-06T02:23:46;8.80;;;6.00;;
21657;SDS011;10990;48.174;9.782;2024-03-06T02:26:12;9.17;;;6.00;;
21657;SDS011;10990;48.174;9.782;2024-03-06T02:28:38;9.23;;;5.90;;
21657;SDS011;10990;48.174;9.782;2024-03-06T02:31:04;9.70;;;6.50;;
21657;SDS011;10990;48.174;9.782;2024-03-06T02:33:31;9.70;;;6.20;;
21657;SDS011;10990;48.174;9.782;2024-03-06T02:35:57;10.37;;;6.93;;
21657;SDS011;10990;48.174;9.782;2024-03-06T02:38:25;9.93;;;6.50;;
21657;SDS011;10990;48.174;9.782;2024-03-06T02:40:51;10.53;;;6.90;;
21657;SDS011;10990;48.174;9.782;2024-03-06T02:43:17;10.93;;;7.17;;
21657;SDS011;10990;48.174;9.782;2024-03-06T02:45:43;11.17;;;7.13;;
21657;SDS011;10990;48.174;9.782;2024-03-06T02:48:09;10.03;;;6.93;;
21657;SDS011;10990;48.174;9.782;2024-03-06T02:50:35;10.73;;;6.90;;
21657;SDS011;10990;48.174;9.782;2024-03-06T02:53:01;12.30;;;7.17;;
21657;SDS011;10990;48.174;9.782;2024-03-06T02:55:30;10.33;;;6.80;;
21657;SDS011;10990;48.174;9.782;2024-03-06T02:57:56;9.97;;;6.53;;
21657;SDS011;10990;48.174;9.782;2024-03-06T03:00:22;11.27;;;7.23;;
21657;SDS011;10990;48.174;9.782;2024-03-06T03:02:48;10.23;;;7.20;;
21657;SDS011;10990;48.174;9.782;2024-03-06T03:05:13;12.37;;;7.17;;
21657;SDS011;10990;48.174;9.782;2024-03-06T03:07:39;10.40;;;6.83;;
21657;SDS011;10990;48.174;9.782;2024-03-06T03:10:06;11.23;;;7.17;;
21657;SDS011;10990;48.174;9.782;2024-03-06T03:12:35;9.33;;;6.83;;
21657;SDS011;10990;48.174;9.782;2024-03-06T03:15:01;9.20;;;6.20;;
21657;SDS011;10990;48.174;9.782;2024-03-06T03:17:27;10.43;;;6.60;;
21657;SDS011;10990;48.174;9.782;2024-03-06T03:19:53;9.07;;;6.90;;
21657;SDS011;10990;48.174;9.782;2024-03-06T03:22:18;9.57;;;6.77;;
21657;SDS011;10990;48.174;9.782;2024-03-06T03:24:44;11.80;;;7.40;;
21657;SDS011;10990;48.174;9.782;2024-03-06T03:27:10;10.50;;;7.10;;
21657;SDS011;10990;48.174;9.782;2024-03-06T03:29:39;10.30;;;7.77;;
21657;SDS011;10990;48.174;9.782;2024-03-06T03:32:05;10.33;;;7.37;;
21657;SDS011;10990;48.174;9.782;2024-03-06T03:34:31;11.47;;;7.40;;
21657;SDS011;10990;48.174;9.782;2024-03-06T03:36:58;11.23;;;7.47;;
21657;SDS011;10990;48.174;9.782;2024-03-06T03:39:24;10.83;;;7.57;;
21657;SDS011;10990;48.174;9.782;2024-03-06T03:41:50;10.80;;;7.10;;
21657;SDS011;10990;48.174;9.782;2024-03-06T03:44:16;8.67;;;6.30;;
21657;SDS011;10990;48.174;9.782;2024-03-06T03:46:45;9.90;;;6.77;;
21657;SDS011;10990;48.174;9.782;2024-03-06T03:49:11;9.77;;;7.30;;
21657;SDS011;10990;48.174;9.782;2024-03-06T03:51:38;8.90;;;7.03;;
21657;SDS011;10990;48.174;9.782;2024-03-06T03:54:05;10.13;;;7.20;;
21657;SDS011;10990;48.174;9.782;2024-03-06T03:56:31;13.50;;;7.23;;
21657;SDS011;10990;48.174;9.782;2024-03-06T03:58:57;10.03;;;6.87;;
21657;SDS011;10990;48.174;9.782;2024-03-06T04:01:24;10.73;;;7.00;;
21657;SDS011;10990;48.174;9.782;2024-03-06T04:03:52;9.33;;;6.60;;
21657;SDS011;10990;48.174;9.782;2024-03-06T04:06:18;10.27;;;7.73;;
21657;SDS011;10990;48.174;9.782;2024-03-06T04:08:45;10.70;;;7.50;;
21657;SDS011;10990;48.174;9.782;2024-03-06T04:11:11;10.10;;;7.07;;
21657;SDS011;10990;48.174;9.782;2024-03-06T04:13:37;10.17;;;6.87;;
21657;SDS011;10990;48.174;9.782;2024-03-06T04:16:03;9.87;;;7.07;;
21657;SDS011;10990;48.174;9.782;2024-03-06T04:18:30;9.40;;;6.93;;
21657;SDS011;10990;48.174;9.782;2024-03-06T04:21:00;9.77;;;7.17;;
21657;SDS011;10990;48.174;9.782;2024-03-06T04:23:28;9.27;;;7.03;;
21657;SDS011;10990;48.174;9.782;2024-03-06T04:25:54;9.93;;;7.17;;
21657;SDS011;10990;48.174;9.782;2024-03-06T04:28:20;11.07;;;6.90;;
21657;SDS011;10990;48.174;9.782;2024-03-06T04:30:46;9.47;;;6.80;;
21657;SDS011;10990;48.174;9.782;2024-03-06T04:33:12;9.70;;;7.10;;
21657;SDS011;10990;48.174;9.782;2024-03-06T04:35:38;9.60;;;7.23;;
21657;SDS011;10990;48.174;9.782;2024-03-06T04:38:07;10.67;;;7.47;;
21657;SDS011;10990;48.174;9.782;2024-03-06T04:40:34;10.20;;;6.87;;
21657;SDS011;10990;48.174;9.782;2024-03-06T04:43:00;9.73;;;6.97;;
21657;SDS011;10990;48.174;9.782;2024-03-06T04:45:26;10.37;;;7.73;;
21657;SDS011;10990;48.174;9.782;2024-03-06T04:47:52;10.77;;;7.77;;
21657;SDS011;10990;48.174;9.782;2024-03-06T04:50:18;13.00;;;8.17;;
21657;SDS011;10990;48.174;9.782;2024-03-06T04:52:44;9.73;;;7.00;;
21657;SDS011;10990;48.174;9.782;2024-03-06T04:55:13;12.37;;;7.67;;
21657;SDS011;10990;48.174;9.782;2024-03-06T04:57:39;11.63;;;7.37;;
21657;SDS011;10990;48.174;9.782;2024-03-06T05:00:09;11.03;;;7.43;;
21657;SDS011;10990;48.174;9.782;2024-03-06T05:02:37;10.80;;;7.17;;
21657;SDS011;10990;48.174;9.782;2024-03-06T05:05:03;9.67;;;6.90;;
21657;SDS011;10990;48.174;9.782;2024-03-06T05:07:30;9.77;;;6.83;;
21657;SDS011;10990;48.174;9.782;2024-03-06T05:09:57;12.10;;;7.00;;
21657;SDS011;10990;48.174;9.782;2024-03-06T05:12:27;10.80;;;7.17;;
21657;SDS011;10990;48.174;9.782;2024-03-06T05:14:53;10.07;;;6.93;;
21657;SDS011;10990;48.174;9.782;2024-03-06T05:17:20;10.47;;;6.83;;
21657;SDS011;10990;48.174;9.782;2024-03-06T05:19:46;10.13;;;7.23;;
21657;SDS011;10990;48.174;9.782;2024-03-06T05:22:13;9.83;;;6.90;;
21657;SDS011;10990;48.174;9.782;2024-03-06T05:24:40;10.07;;;6.97;;
21657;SDS011;10990;48.174;9.782;2024-03-06T05:27:06;11.93;;;7.30;;
21657;SDS011;10990;48.174;9.782;2024-03-06T05:29:35;11.07;;;6.97;;
21657;SDS011;10990;48.174;9.782;2024-03-06T05:32:01;13.73;;;7.70;;
21657;SDS011;10990;48.174;9.782;2024-03-06T05:34:27;11.47;;;7.50;;
21657;SDS011;10990;48.174;9.782;2024-03-06T05:36:53;10.13;;;7.10;;
21657;SDS011;10990;48.174;9.782;2024-03-06T05:39:19;11.60;;;7.50;;
21657;SDS011;10990;48.174;9.782;2024-03-06T05:41:45;11.27;;;7.53;;
21657;SDS011;10990;48.174;9.782;2024-03-06T05:44:11;11.20;;;7.60;;
21657;SDS011;10990;48.174;9.782;2024-03-06T05:46:40;11.70;;;7.60;;
21657;SDS011;10990;48.174;9.782;2024-03-06T05:49:06;11.37;;;7.73;;
21657;SDS011;10990;48.174;9.782;2024-03-06T05:51:32;10.00;;;7.50;;
21657;SDS011;10990;48.174;9.782;2024-03-06T05:53:58;12.13;;;8.10;;
21657;SDS011;10990;48.174;9.782;2024-03-06T05:56:24;12.50;;;8.27;;
21657;SDS011;10990;48.174;9.782;2024-03-06T05:58:50;11.37;;;7.80;;
21657;SDS011;10990;48.174;9.782;2024-03-06T06:01:16;12.80;;;7.73;;
21657;SDS011;10990;48.174;9.782;2024-03-06T06:03:45;13.40;;;7.80;;
21657;SDS011;10990;48.174;9.782;2024-03-06T06:06:11;11.23;;;8.00;;
21657;SDS011;10990;48.174;9.782;2024-03-06T06:08:37;11.43;;;8.10;;
21657;SDS011;10990;48.174;9.782;2024-03-06T06:11:03;11.20;;;7.70;;
21657;SDS011;10990;48.174;9.782;2024-03-06T06:13:29;10.57;;;7.63;;
21657;SDS011;10990;48.174;9.782;2024-03-06T06:15:57;13.33;;;8.17;;
21657;SDS011;10990;48.174;9.782;2024-03-06T06:18:23;10.13;;;7.50;;
21657;SDS011;10990;48.174;9.782;2024-03-06T06:20:52;11.87;;;7.90;;
21657;SDS011;10990;48.174;9.782;2024-03-06T06:23:18;10.10;;;7.47;;
21657;SDS011;10990;48.174;9.782;2024-03-06T06:25:44;11.37;;;7.57;;
21657;SDS011;10990;48.174;9.782;2024-03-06T06:28:10;11.10;;;8.27;;
21657;SDS011;10990;48.174;9.782;2024-03-06T06:30:36;12.83;;;7.90;;
21657;SDS011;10990;48.174;9.782;2024-03-06T06:33:02;10.57;;;8.07;;
21657;SDS011;10990;48.174;9.782;2024-03-06T06:35:28;11.90;;;7.93;;
21657;SDS011;10990;48.174;9.782;2024-03-06T06:37:57;11.13;;;7.60;;
21657;SDS011;10990;48.174;9.782;2024-03-06T06:40:23;9.70;;;7.47;;
21657;SDS011;10990;48.174;9.782;2024-03-06T06:42:49;8.97;;;6.83;;
21657;SDS011;10990;48.174;9.782;2024-03-06T06:45:15;11.40;;;7.50;;
21657;SDS011;10990;48.174;9.782;2024-03-06T06:47:41;9.50;;;7.30;;
21657;SDS011;10990;48.174;9.782;2024-03-06T06:50:08;11.63;;;7.30;;
21657;SDS011;10990;48.174;9.782;2024-03-06T06:52:34;9.83;;;7.40;;
21657;SDS011;10990;48.174;9.782;2024-03-06T06:55:03;9.93;;;7.00;;
21657;SDS011;10990;48.174;9.782;2024-03-06T06:57:30;9.57;;;7.57;;
21657;SDS011;10990;48.174;9.782;2024-03-06T06:59:56;9.17;;;7.23;;
21657;SDS011;10990;48.174;9.782;2024-03-06T07:02:22;9.30;;;6.63;;
21657;SDS011;10990;48.174;9.782;2024-03-06T07:04:48;9.33;;;7.10;;
21657;SDS011;10990;48.174;9.782;2024-03-06T07:07:14;8.57;;;6.33;;
21657;SDS011;10990;48.174;9.782;2024-03-06T07:09:40;8.10;;;6.47;;
21657;SDS011;10990;48.174;9.782;2024-03-06T07:12:09;9.90;;;7.00;;
21657;SDS011;10990;48.174;9.782;2024-03-06T07:14:35;9.80;;;7.13;;
21657;SDS011;10990;48.174;9.782;2024-03-06T07:17:01;9.47;;;6.63;;
21657;SDS011;10990;48.174;9.782;2024-03-06T07:19:27;9.00;;;6.63;;
21657;SDS011;10990;48.174;9.782;2024-03-06T07:21:53;9.60;;;6.83;;
21657;SDS011;10990;48.174;9.782;2024-03-06T07:24:19;8.93;;;6.70;;
21657;SDS011;10990;48.174;9.782;2024-03-06T07:26:45;9.03;;;6.83;;
21657;SDS011;10990;48.174;9.782;2024-03-06T07:29:14;9.60;;;6.57;;
21657;SDS011;10990;48.174;9.782;2024-03-06T07:31:40;9.87;;;6.67;;
21657;SDS011;10990;48.174;9.782;2024-03-06T07:34:07;8.67;;;6.50;;
21657;SDS011;10990;48.174;9.782;2024-03-06T07:36:33;9.73;;;7.17;;
21657;SDS011;10990;48.174;9.782;2024-03-06T07:38:59;8.63;;;6.57;;
21657;SDS011;10990;48.174;9.782;2024-03-06T07:41:26;9.13;;;6.13;;
21657;SDS011;10990;48.174;9.782;2024-03-06T07:43:52;8.37;;;6.70;;
21657;SDS011;10990;48.174;9.782;2024-03-06T07:46:21;9.33;;;7.20;;
21657;SDS011;10990;48.174;9.782;2024-03-06T07:48:47;9.83;;;7.20;;
21657;SDS011;10990;48.174;9.782;2024-03-06T07:51:13;9.03;;;6.00;;
21657;SDS011;10990;48.174;9.782;2024-03-06T07:53:39;8.37;;;6.43;;
21657;SDS011;10990;48.174;9.782;2024-03-06T07:56:05;12.00;;;7.03;;
21657;SDS011;10990;48.174;9.782;2024-03-06T07:58:35;10.07;;;6.83;;
21657;SDS011;10990;48.174;9.782;2024-03-06T08:01:01;8.83;;;6.83;;
21657;SDS011;10990;48.174;9.782;2024-03-06T08:03:30;7.47;;;5.53;;
21657;SDS011;10990;48.174;9.782;2024-03-06T08:05:56;6.83;;;5.40;;
21657;SDS011;10990;48.174;9.782;2024-03-06T08:08:23;8.43;;;5.77;;
21657;SDS011;10990;48.174;9.782;2024-03-06T08:10:49;6.60;;;4.67;;
21657;SDS011;10990;48.174;9.782;2024-03-06T08:13:15;5.80;;;4.60;;
21657;SDS011;10990;48.174;9.782;2024-03-06T08:15:41;6.63;;;5.17;;
21657;SDS011;10990;48.174;9.782;2024-03-06T08:18:08;6.00;;;4.80;;
21657;SDS011;10990;48.174;9.782;2024-03-06T08:20:37;6.23;;;4.43;;
21657;SDS011;10990;48.174;9.782;2024-03-06T08:23:03;6.53;;;4.40;;
21657;SDS011;10990;48.174;9.782;2024-03-06T08:25:29;5.40;;;4.30;;
21657;SDS011;10990;48.174;9.782;2024-03-06T08:27:56;5.17;;;4.10;;
21657;SDS011;10990;48.174;9.782;2024-03-06T08:30:22;5.67;;;4.03;;
21657;SDS011;10990;48.174;9.782;2024-03-06T08:32:48;5.00;;;4.10;;
21657;SDS011;10990;48.174;9.782;2024-03-06T08:35:14;5.17;;;3.80;;
21657;SDS011;10990;48.174;9.782;2024-03-06T08:37:42;5.37;;;3.73;;
21657;SDS011;10990;48.174;9.782;2024-03-06T08:40:09;4.83;;;3.90;;
21657;SDS011;10990;48.174;9.782;2024-03-06T08:42:36;6.40;;;4.63;;
21657;SDS011;10990;48.174;9.782;2024-03-06T08:45:02;4.93;;;4.20;;
21657;SDS011;10990;48.174;9.782;2024-03-06T08:47:29;5.37;;;4.40;;
21657;SDS011;10990;48.174;9.782;2024-03-06T08:49:55;5.07;;;3.87;;
21657;SDS011;10990;48.174;9.782;2024-03-06T08:52:21;5.60;;;4.10;;
21657;SDS011;10990;48.174;9.782;2024-03-06T08:54:49;4.63;;;3.80;;
21657;SDS011;10990;48.174;9.782;2024-03-06T08:57:16;4.47;;;3.73;;
21657;SDS011;10990;48.174;9.782;2024-03-06T08:59:42;4.87;;;3.70;;
21657;SDS011;10990;48.174;9.782;2024-03-06T09:02:14;5.07;;;4.00;;
21657;SDS011;10990;48.174;9.782;2024-03-06T09:04:41;4.97;;;3.97;;
21657;SDS011;10990;48.174;9.782;2024-03-06T09:07:08;5.30;;;4.10;;
21657;SDS011;10990;48.174;9.782;2024-03-06T09:09:34;4.77;;;3.50;;
21657;SDS011;10990;48.174;9.782;2024-03-06T09:12:03;5.47;;;3.60;;
21657;SDS011;10990;48.174;9.782;2024-03-06T09:14:29;5.03;;;3.80;;
21657;SDS011;10990;48.174;9.782;2024-03-06T09:16:55;3.80;;;3.40;;
21657;SDS011;10990;48.174;9.782;2024-03-06T09:19:21;4.63;;;3.80;;
21657;SDS011;10990;48.174;9.782;2024-03-06T09:21:48;3.90;;;3.30;;
21657;SDS011;10990;48.174;9.782;2024-03-06T09:24:14;4.13;;;3.50;;
21657;SDS011;10990;48.174;9.782;2024-03-06T09:26:40;4.30;;;3.40;;
21657;SDS011;10990;48.174;9.782;2024-03-06T09:29:08;4.70;;;3.50;;
21657;SDS011;10990;48.174;9.782;2024-03-06T09:31:35;4.80;;;3.70;;
21657;SDS011;10990;48.174;9.782;2024-03-06T09:34:01;3.33;;;3.00;;
21657;SDS011;10990;48.174;9.782;2024-03-06T09:36:27;3.60;;;2.83;;
21657;SDS011;10990;48.174;9.782;2024-03-06T09:38:53;4.30;;;3.20;;
21657;SDS011;10990;48.174;9.782;2024-03-06T09:41:19;4.20;;;3.13;;
21657;SDS011;10990;48.174;9.782;2024-03-06T09:43:45;4.20;;;3.10;;
21657;SDS011;10990;48.174;9.782;2024-03-06T09:46:13;3.87;;;2.93;;
21657;SDS011;10990;48.174;9.782;2024-03-06T09:48:41;4.13;;;3.20;;
21657;SDS011;10990;48.174;9.782;2024-03-06T09:51:12;3.60;;;2.93;;
21657;SDS011;10990;48.174;9.782;2024-03-06T09:53:39;4.17;;;3.20;;
21657;SDS011;10990;48.174;9.782;2024-03-06T09:56:05;4.20;;;3.20;;
21657;SDS011;10990;48.174;9.782;2024-03-06T09:58:32;3.07;;;2.77;;
21657;SDS011;10990;48.174;9.782;2024-03-06T10:00:59;4.50;;;3.30;;
21657;SDS011;10990;48.174;9.782;2024-03-06T10:03:28;3.77;;;2.80;;
21657;SDS011;10990;48.174;9.782;2024-03-06T10:05:54;3.40;;;2.80;;
21657;SDS011;10990;48.174;9.782;2024-03-06T10:08:20;4.27;;;3.03;;
21657;SDS011;10990;48.174;9.782;2024-03-06T10:10:47;3.83;;;3.10;;
21657;SDS011;10990;48.174;9.782;2024-03-06T10:13:13;3.93;;;2.63;;
21657;SDS011;10990;48.174;9.782;2024-03-06T10:15:41;3.73;;;2.80;;
21657;SDS011;10990;48.174;9.782;2024-03-06T10:18:11;3.43;;;2.80;;
21657;SDS011;10990;48.174;9.782;2024-03-06T10:20:40;3.87;;;3.03;;
21657;SDS011;10990;48.174;9.782;2024-03-06T10:23:07;3.23;;;2.83;;
21657;SDS011;10990;48.174;9.782;2024-03-06T10:25:33;3.13;;;2.70;;
21657;SDS011;10990;48.174;9.782;2024-03-06T10:28:03;3.07;;;2.47;;
21657;SDS011;10990;48.174;9.782;2024-03-06T10:30:30;3.40;;;2.60;;
21657;SDS011;10990;48.174;9.782;2024-03-06T10:32:56;3.10;;;2.70;;
21657;SDS011;10990;48.174;9.782;2024-03-06T10:35:22;3.70;;;2.70;;
21657;SDS011;10990;48.174;9.782;2024-03-06T10:37:51;3.37;;;2.63;;
21657;SDS011;10990;48.174;9.782;2024-03-06T10:40:19;3.07;;;2.70;;
21657;SDS011;10990;48.174;9.782;2024-03-06T10:42:48;5.27;;;2.80;;
21657;SDS011;10990;48.174;9.782;2024-03-06T10:45:14;3.10;;;2.50;;
21657;SDS011;10990;48.174;9.782;2024-03-06T10:47:45;3.00;;;2.70;;
21657;SDS011;10990;48.174;9.782;2024-03-06T10:50:11;4.40;;;2.83;;
21657;SDS011;10990;48.174;9.782;2024-03-06T10:52:39;4.50;;;3.00;;
21657;SDS011;10990;48.174;9.782;2024-03-06T10:55:10;3.97;;;2.87;;
21657;SDS011;10990;48.174;9.782;2024-03-06T10:57:37;3.70;;;2.80;;
21657;SDS011;10990;48.174;9.782;2024-03-06T11:00:07;3.40;;;2.90;;
21657;SDS011;10990;48.174;9.782;2024-03-06T11:02:34;4.17;;;3.17;;
21657;SDS011;10990;48.174;9.782;2024-03-06T11:05:01;3.30;;;2.80;;
21657;SDS011;10990;48.174;9.782;2024-03-06T11:07:29;3.70;;;2.83;;
21657;SDS011;10990;48.174;9.782;2024-03-06T11:09:57;3.43;;;2.83;;
21657;SDS011;10990;48.174;9.782;2024-03-06T11:12:36;5.27;;;3.20;;
21657;SDS011;10990;48.174;9.782;2024-03-06T11:15:08;3.73;;;3.00;;
21657;SDS011;10990;48.174;9.782;2024-03-06T11:17:35;4.23;;;2.90;;
21657;SDS011;10990;48.174;9.782;2024-03-06T11:20:08;3.63;;;2.77;;
21657;SDS011;10990;48.174;9.782;2024-03-06T11:28:28;4.47;;;3.23;;
21657;SDS011;10990;48.174;9.782;2024-03-06T11:30:56;4.50;;;3.33;;
21657;SDS011;10990;48.174;9.782;2024-03-06T11:33:23;5.17;;;3.73;;
21657;SDS011;10990;48.174;9.782;2024-03-06T11:38:40;6.53;;;3.60;;
21657;SDS011;10990;48.174;9.782;2024-03-06T11:41:06;4.83;;;3.53;;
21657;SDS011;10990;48.174;9.782;2024-03-06T11:43:41;5.20;;;3.10;;
21657;SDS011;10990;48.174;9.782;2024-03-06T11:46:08;3.57;;;2.70;;
21657;SDS011;10990;48.174;9.782;2024-03-06T11:48:34;3.57;;;2.77;;
21657;SDS011;10990;48.174;9.782;2024-03-06T11:51:01;4.23;;;3.30;;
21657;SDS011;10990;48.174;9.782;2024-03-06T11:53:28;4.20;;;2.80;;
21657;SDS011;10990;48.174;9.782;2024-03-06T11:55:55;3.97;;;2.90;;
21657;SDS011;10990;48.174;9.782;2024-03-06T11:58:21;3.80;;;2.80;;
21657;SDS011;10990;48.174;9.782;2024-03-06T12:00:50;3.90;;;2.77;;
21657;SDS011;10990;48.174;9.782;2024-03-06T12:03:16;4.77;;;2.37;;
21657;SDS011;10990;48.174;9.782;2024-03-06T12:05:43;3.90;;;2.60;;
21657;SDS011;10990;48.174;9.782;2024-03-06T12:08:10;4.53;;;2.47;;
21657;SDS011;10990;48.174;9.782;2024-03-06T12:10:36;3.80;;;2.50;;
21657;SDS011;10990;48.174;9.782;2024-03-06T12:13:04;3.20;;;2.43;;
21657;SDS011;10990;48.174;9.782;2024-03-06T12:15:30;2.90;;;2.40;;
21657;SDS011;10990;48.174;9.782;2024-03-06T12:17:59;3.33;;;2.60;;
21657;SDS011;10990;48.174;9.782;2024-03-06T12:20:25;4.30;;;2.40;;
21657;SDS011;10990;48.174;9.782;2024-03-06T12:22:51;3.87;;;2.63;;
21657;SDS011;10990;48.174;9.782;2024-03-06T12:25:18;3.07;;;2.50;;
21657;SDS011;10990;48.174;9.782;2024-03-06T12:27:44;3.77;;;2.50;;
21657;SDS011;10990;48.174;9.782;2024-03-06T12:30:11;3.30;;;2.50;;
21657;SDS011;10990;48.174;9.782;2024-03-06T12:32:37;3.03;;;2.03;;
21657;SDS011;10990;48.174;9.782;2024-03-06T12:35:06;2.63;;;2.20;;
21657;SDS011;10990;48.174;9.782;2024-03-06T12:37:33;6.27;;;2.53;;
21657;SDS011;10990;48.174;9.782;2024-03-06T12:39:59;5.67;;;2.43;;
21657;SDS011;10990;48.174;9.782;2024-03-06T12:42:25;2.73;;;2.30;;
21657;SDS011;10990;48.174;9.782;2024-03-06T12:44:51;3.47;;;2.30;;
21657;SDS011;10990;48.174;9.782;2024-03-06T12:47:17;2.33;;;2.00;;
21657;SDS011;10990;48.174;9.782;2024-03-06T12:49:43;2.37;;;2.03;;
21657;SDS011;10990;48.174;9.782;2024-03-06T12:52:12;2.53;;;2.03;;
21657;SDS011;10990;48.174;9.782;2024-03-06T12:54:38;3.17;;;2.50;;
21657;SDS011;10990;48.174;9.782;2024-03-06T12:57:04;2.43;;;2.23;;
21657;SDS011;10990;48.174;9.782;2024-03-06T12:59:30;3.03;;;2.30;;
21657;SDS011;10990;48.174;9.782;2024-03-06T13:01:56;3.33;;;2.40;;
21657;SDS011;10990;48.174;9.782;2024-03-06T13:04:22;3.03;;;2.20;;
21657;SDS011;10990;48.174;9.782;2024-03-06T13:06:48;3.00;;;2.33;;
21657;SDS011;10990;48.174;9.782;2024-03-06T13:09:17;3.97;;;2.33;;
21657;SDS011;10990;48.174;9.782;2024-03-06T13:11:43;3.93;;;2.40;;
21657;SDS011;10990;48.174;9.782;2024-03-06T13:14:09;3.23;;;2.47;;
21657;SDS011;10990;48.174;9.782;2024-03-06T13:16:35;3.00;;;2.30;;
21657;SDS011;10990;48.174;9.782;2024-03-06T13:19:01;3.23;;;2.30;;
21657;SDS011;10990;48.174;9.782;2024-03-06T13:21:27;2.73;;;2.10;;
21657;SDS011;10990;48.174;9.782;2024-03-06T13:23:53;3.10;;;2.60;;
21657;SDS011;10990;48.174;9.782;2024-03-06T13:26:22;2.60;;;2.13;;
21657;SDS011;10990;48.174;9.782;2024-03-06T13:28:48;3.00;;;2.50;;
21657;SDS011;10990;48.174;9.782;2024-03-06T13:31:14;2.43;;;2.17;;
21657;SDS011;10990;48.174;9.782;2024-03-06T13:33:40;3.37;;;2.33;;
21657;SDS011;10990;48.174;9.782;2024-03-06T13:36:06;4.17;;;2.40;;
21657;SDS011;10990;48.174;9.782;2024-03-06T13:38:33;2.60;;;2.37;;
21657;SDS011;10990;48.174;9.782;2024-03-06T13:40:59;3.50;;;2.70;;
21657;SDS011;10990;48.174;9.782;2024-03-06T13:43:27;2.60;;;2.27;;
21657;SDS011;10990;48.174;9.782;2024-03-06T13:45:53;3.40;;;2.40;;
21657;SDS011;10990;48.174;9.782;2024-03-06T13:48:19;3.87;;;2.90;;
21657;SDS011;10990;48.174;9.782;2024-03-06T13:50:46;4.83;;;3.10;;
21657;SDS011;10990;48.174;9.782;2024-03-06T13:53:12;6.77;;;4.30;;
21657;SDS011;10990;48.174;9.782;2024-03-06T13:55:38;6.80;;;3.90;;
21657;SDS011;10990;48.174;9.782;2024-03-06T13:58:04;5.97;;;4.20;;
21657;SDS011;10990;48.174;9.782;2024-03-06T14:00:33;5.57;;;3.93;;
21657;SDS011;10990;48.174;9.782;2024-03-06T14:02:59;6.33;;;4.00;;
21657;SDS011;10990;48.174;9.782;2024-03-06T14:05:25;6.93;;;4.90;;
21657;SDS011;10990;48.174;9.782;2024-03-06T14:07:51;6.53;;;4.50;;
21657;SDS011;10990;48.174;9.782;2024-03-06T14:10:17;6.40;;;4.70;;
21657;SDS011;10990;48.174;9.782;2024-03-06T14:12:43;8.03;;;4.87;;
21657;SDS011;10990;48.174;9.782;2024-03-06T14:15:09;7.63;;;5.30;;
21657;SDS011;10990;48.174;9.782;2024-03-06T14:17:38;6.87;;;4.77;;
21657;SDS011;10990;48.174;9.782;2024-03-06T14:20:04;8.17;;;4.50;;
21657;SDS011;10990;48.174;9.782;2024-03-06T14:22:31;7.70;;;5.07;;
21657;SDS011;10990;48.174;9.782;2024-03-06T14:24:57;7.60;;;5.10;;
21657;SDS011;10990;48.174;9.782;2024-03-06T14:27:23;9.40;;;5.47;;
21657;SDS011;10990;48.174;9.782;2024-03-06T14:29:49;7.13;;;5.00;;
21657;SDS011;10990;48.174;9.782;2024-03-06T14:32:16;7.87;;;5.27;;
21657;SDS011;10990;48.174;9.782;2024-03-06T14:34:47;7.80;;;5.63;;
21657;SDS011;10990;48.174;9.782;2024-03-06T14:37:13;7.57;;;4.77;;
21657;SDS011;10990;48.174;9.782;2024-03-06T14:39:39;7.23;;;4.60;;
21657;SDS011;10990;48.174;9.782;2024-03-06T14:42:05;6.67;;;4.57;;
21657;SDS011;10990;48.174;9.782;2024-03-06T14:44:32;6.17;;;4.40;;
21657;SDS011;10990;48.174;9.782;2024-03-06T14:46:58;5.73;;;4.17;;
21657;SDS011;10990;48.174;9.782;2024-03-06T14:49:24;6.43;;;4.20;;
21657;SDS011;10990;48.174;9.782;2024-03-06T14:51:53;5.43;;;3.60;;